Strona główna
METAR-TAF:

METAR-TAF

Lotnisko :

Dole, Francja

Szerokość geograficzna: 47-02-34N, Długość geograficzna: 005-26-06E, wysokość: 196 m

Aktualna obserwacja pogody

Raport powstał 17 minut temu, godzina 08:30 UTC
Wiatr 11 kt od północny wschód, zmienny między północ i wschodnio-północny wschód
Temperatura 21°C
Wilgotność 46%
Ciśnienie 1027 hPa
Widzialność 10 km lub więcej
Brak chmur poniżej 1500 m i brak chmur cumulonimbus

METAR: LFGJ 280830Z AUTO 04011KT 010V070 CAVOK 21/09 Q1027 NOSIG

czas: 10:47 (08:47 UTC)

Prognoza

Raport powstał 47 minut temu, godzina 08:00 UTC
Prognoza ważna od 28 godzina 09 UTC do 28 godzina 18 UTC
Wiatr 10 kt od północny wschód
Widzialność 10 km lub więcej
Brak chmur poniżej 1500 m i brak chmur cumulonimbus
Przejściowo
od 28 godzina 10 UTC do 28 godzina 16 UTC
Wiatr 10 kt od północny wschód w porywach dochodzący do 20 kt

TAF: LFGJ 280800Z 2809/2818 04010KT CAVOK TEMPO 2810/2816 05010G20KT

Obserwacja i prognoza pogody dla ponad 4000 lotnisk (raport METAR i TAF).

Dostępne stacje oznaczono żółtymi i czerwonymi punktami na mapie.

Najedź kursorem aby zobaczyć nazwę stacji.

Kliknij aby zobaczyć obserwacje i prognozy pogody.

Aby zmienić mapę: kliknij na zielony przycisk z czarnym krzyżykiem, aby powiększyć; na zielony przycisk z myślnikiem, aby pomniejszyć; na zielone strzałki, aby przejść do map sąsiednich.


METAR-TAF: